sensor_id;sensor_type;location;lat;lon;timestamp;pressure;altitude;pressure_sealevel;temperature;humidity
66945;BME280;53853;51.982;5.928;2023-02-08T00:00:22;103859.81;;;1.21;69.31
66945;BME280;53853;51.982;5.928;2023-02-08T00:02:52;103868.56;;;1.20;69.46
66945;BME280;53853;51.982;5.928;2023-02-08T00:05:22;103864.19;;;1.20;69.90
66945;BME280;53853;51.982;5.928;2023-02-08T00:07:52;103866.81;;;1.20;69.91
66945;BME280;53853;51.982;5.928;2023-02-08T00:10:24;103865.09;;;1.18;69.75
66945;BME280;53853;51.982;5.928;2023-02-08T00:12:54;103856.41;;;1.13;69.55
66945;BME280;53853;51.982;5.928;2023-02-08T00:15:24;103871.28;;;1.12;69.88
66945;BME280;53853;51.982;5.928;2023-02-08T00:17:54;103863.41;;;1.11;70.33
66945;BME280;53853;51.982;5.928;2023-02-08T00:20:24;103865.19;;;1.08;69.97
66945;BME280;53853;51.982;5.928;2023-02-08T00:22:55;103856.47;;;1.03;69.55
66945;BME280;53853;51.982;5.928;2023-02-08T00:25:27;103854.72;;;1.02;69.90
66945;BME280;53853;51.982;5.928;2023-02-08T00:27:57;103848.63;;;1.00;70.21
66945;BME280;53853;51.982;5.928;2023-02-08T00:30:27;103853.00;;;0.98;69.77
66945;BME280;53853;51.982;5.928;2023-02-08T00:32:57;103853.06;;;0.94;69.90
66945;BME280;53853;51.982;5.928;2023-02-08T00:35:28;103845.22;;;0.90;70.45
66945;BME280;53853;51.982;5.928;2023-02-08T00:37:58;103846.09;;;0.88;70.69
66945;BME280;53853;51.982;5.928;2023-02-08T00:40:31;103853.97;;;0.88;70.69
66945;BME280;53853;51.982;5.928;2023-02-08T00:43:01;103846.09;;;0.89;70.70
66945;BME280;53853;51.982;5.928;2023-02-08T00:45:32;103849.56;;;0.90;70.51
66945;BME280;53853;51.982;5.928;2023-02-08T00:48:02;103841.69;;;0.88;70.58
66945;BME280;53853;51.982;5.928;2023-02-08T00:50:32;103837.41;;;0.83;70.52
66945;BME280;53853;51.982;5.928;2023-02-08T00:53:03;103840.03;;;0.83;70.24
66945;BME280;53853;51.982;5.928;2023-02-08T00:55:35;103841.78;;;0.78;70.14
66945;BME280;53853;51.982;5.928;2023-02-08T00:58:05;103838.31;;;0.76;70.34
66945;BME280;53853;51.982;5.928;2023-02-08T01:00:36;103833.97;;;0.73;70.64
66945;BME280;53853;51.982;5.928;2023-02-08T01:03:06;103847.09;;;0.73;69.97
66945;BME280;53853;51.982;5.928;2023-02-08T01:05:37;103829.59;;;0.70;69.73
66945;BME280;53853;51.982;5.928;2023-02-08T01:08:07;103832.22;;;0.70;70.28
66945;BME280;53853;51.982;5.928;2023-02-08T01:10:39;103831.34;;;0.71;70.67
66945;BME280;53853;51.982;5.928;2023-02-08T01:13:09;103829.59;;;0.72;70.48
66945;BME280;53853;51.982;5.928;2023-02-08T01:15:39;103825.22;;;0.69;70.54
66945;BME280;53853;51.982;5.928;2023-02-08T01:18:09;103827.00;;;0.69;71.03
66945;BME280;53853;51.982;5.928;2023-02-08T01:20:39;103828.75;;;0.70;70.73
66945;BME280;53853;51.982;5.928;2023-02-08T01:23:09;103819.13;;;0.67;70.48
66945;BME280;53853;51.982;5.928;2023-02-08T01:25:42;103820.00;;;0.65;70.27
66945;BME280;53853;51.982;5.928;2023-02-08T01:28:11;103824.41;;;0.63;70.42
66945;BME280;53853;51.982;5.928;2023-02-08T01:30:41;103828.81;;;0.62;70.73
66945;BME280;53853;51.982;5.928;2023-02-08T01:33:11;103822.66;;;0.60;70.99
66945;BME280;53853;51.982;5.928;2023-02-08T01:35:41;103818.31;;;0.59;71.41
66945;BME280;53853;51.982;5.928;2023-02-08T01:38:11;103831.44;;;0.61;71.42
66945;BME280;53853;51.982;5.928;2023-02-08T01:40:44;103833.16;;;0.60;71.22
66945;BME280;53853;51.982;5.928;2023-02-08T01:43:21;103834.06;;;0.59;71.07
66945;BME280;53853;51.982;5.928;2023-02-08T01:45:52;103836.72;;;0.53;70.61
66945;BME280;53853;51.982;5.928;2023-02-08T01:48:25;103834.13;;;0.50;70.55
66945;BME280;53853;51.982;5.928;2023-02-08T01:50:59;103832.38;;;0.49;70.51
66945;BME280;53853;51.982;5.928;2023-02-08T01:53:30;103829.75;;;0.49;70.97
66945;BME280;53853;51.982;5.928;2023-02-08T01:56:07;103838.50;;;0.49;71.02
66945;BME280;53853;51.982;5.928;2023-02-08T01:58:42;103826.25;;;0.51;71.07
66945;BME280;53853;51.982;5.928;2023-02-08T02:01:13;103819.22;;;0.52;71.08
66945;BME280;53853;51.982;5.928;2023-02-08T02:03:44;103819.22;;;0.52;70.72
66945;BME280;53853;51.982;5.928;2023-02-08T02:06:17;103825.38;;;0.51;70.93
66945;BME280;53853;51.982;5.928;2023-02-08T02:08:55;103819.25;;;0.47;70.91
66945;BME280;53853;51.982;5.928;2023-02-08T02:11:29;103821.03;;;0.44;70.59
66945;BME280;53853;51.982;5.928;2023-02-08T02:14:00;103824.56;;;0.40;70.46
66945;BME280;53853;51.982;5.928;2023-02-08T02:16:31;103816.69;;;0.38;70.94
66945;BME280;53853;51.982;5.928;2023-02-08T02:19:01;103812.34;;;0.39;70.94
66945;BME280;53853;51.982;5.928;2023-02-08T02:21:53;103819.31;;;0.38;70.97
66945;BME280;53853;51.982;5.928;2023-02-08T02:25:01;103812.34;;;0.39;71.19
66945;BME280;53853;51.982;5.928;2023-02-08T02:28:04;103815.84;;;0.38;71.14
66945;BME280;53853;51.982;5.928;2023-02-08T02:31:26;103812.38;;;0.35;71.30
66945;BME280;53853;51.982;5.928;2023-02-08T02:34:03;103809.75;;;0.34;71.36
66945;BME280;53853;51.982;5.928;2023-02-08T02:36:45;103813.25;;;0.28;70.80
66945;BME280;53853;51.982;5.928;2023-02-08T02:39:26;103809.78;;;0.26;71.10
66945;BME280;53853;51.982;5.928;2023-02-08T02:42:09;103806.31;;;0.23;71.43
66945;BME280;53853;51.982;5.928;2023-02-08T02:45:01;103798.47;;;0.20;71.63
66945;BME280;53853;51.982;5.928;2023-02-08T02:47:40;103795.00;;;0.17;71.74
66945;BME280;53853;51.982;5.928;2023-02-08T02:50:21;103796.72;;;0.17;71.93
66945;BME280;53853;51.982;5.928;2023-02-08T02:52:58;103800.25;;;0.17;71.78
66945;BME280;53853;51.982;5.928;2023-02-08T02:55:31;103800.25;;;0.14;71.86
66945;BME280;53853;51.982;5.928;2023-02-08T02:58:04;103799.38;;;0.14;71.67
66945;BME280;53853;51.982;5.928;2023-02-08T03:00:35;103796.75;;;0.11;71.69
66945;BME280;53853;51.982;5.928;2023-02-08T03:03:12;103798.53;;;0.10;71.95
66945;BME280;53853;51.982;5.928;2023-02-08T03:05:47;103800.28;;;0.10;72.07
66945;BME280;53853;51.982;5.928;2023-02-08T03:11:15;103808.16;;;0.07;72.31
66945;BME280;53853;51.982;5.928;2023-02-08T03:14:01;103808.19;;;0.05;71.98
66945;BME280;53853;51.982;5.928;2023-02-08T03:16:42;103803.81;;;0.01;72.05
66945;BME280;53853;51.982;5.928;2023-02-08T03:19:21;103791.59;;;0.00;72.16
66945;BME280;53853;51.982;5.928;2023-02-08T03:21:59;103792.47;;;-0.03;72.22
66945;BME280;53853;51.982;5.928;2023-02-08T03:24:39;103800.34;;;-0.03;72.00
66945;BME280;53853;51.982;5.928;2023-02-08T03:27:17;103797.72;;;-0.04;72.11
66945;BME280;53853;51.982;5.928;2023-02-08T03:29:56;103798.59;;;-0.04;72.32
66945;BME280;53853;51.982;5.928;2023-02-08T03:32:35;103795.09;;;-0.04;72.45
66945;BME280;53853;51.982;5.928;2023-02-08T03:35:15;103795.09;;;-0.04;72.18
66945;BME280;53853;51.982;5.928;2023-02-08T03:37:53;103794.25;;;-0.05;72.39
66945;BME280;53853;51.982;5.928;2023-02-08T03:40:27;103798.59;;;-0.05;72.34
66945;BME280;53853;51.982;5.928;2023-02-08T03:43:02;103789.88;;;-0.06;72.40
66945;BME280;53853;51.982;5.928;2023-02-08T03:45:37;103805.59;;;-0.06;72.45
66945;BME280;53853;51.982;5.928;2023-02-08T03:48:11;103800.34;;;-0.06;72.06
66945;BME280;53853;51.982;5.928;2023-02-08T03:50:48;103800.34;;;-0.06;71.92
66945;BME280;53853;51.982;5.928;2023-02-08T03:53:21;103789.91;;;-0.10;71.88
66945;BME280;53853;51.982;5.928;2023-02-08T03:55:55;103799.53;;;-0.14;72.06
66945;BME280;53853;51.982;5.928;2023-02-08T03:58:30;103799.53;;;-0.15;72.35
66945;BME280;53853;51.982;5.928;2023-02-08T04:01:04;103793.41;;;-0.16;72.23
66945;BME280;53853;51.982;5.928;2023-02-08T04:03:35;103787.31;;;-0.18;71.81
66945;BME280;53853;51.982;5.928;2023-02-08T04:06:07;103795.16;;;-0.18;71.65
66945;BME280;53853;51.982;5.928;2023-02-08T04:08:37;103796.94;;;-0.19;71.87
66945;BME280;53853;51.982;5.928;2023-02-08T04:11:07;103798.63;;;-0.16;71.86
66945;BME280;53853;51.982;5.928;2023-02-08T04:13:37;103790.78;;;-0.13;72.10
66945;BME280;53853;51.982;5.928;2023-02-08T04:16:09;103791.66;;;-0.11;71.61
66945;BME280;53853;51.982;5.928;2023-02-08T04:18:40;103792.50;;;-0.10;71.25
66945;BME280;53853;51.982;5.928;2023-02-08T04:21:12;103806.50;;;-0.13;71.07
66945;BME280;53853;51.982;5.928;2023-02-08T04:23:42;103802.16;;;-0.17;71.31
66945;BME280;53853;51.982;5.928;2023-02-08T04:26:12;103803.94;;;-0.19;71.17
66945;BME280;53853;51.982;5.928;2023-02-08T04:28:42;103807.41;;;-0.20;71.24
66945;BME280;53853;51.982;5.928;2023-02-08T04:31:12;103808.28;;;-0.18;70.99
66945;BME280;53853;51.982;5.928;2023-02-08T04:33:42;103810.88;;;-0.18;71.39
66945;BME280;53853;51.982;5.928;2023-02-08T04:36:14;103812.63;;;-0.15;71.73
66945;BME280;53853;51.982;5.928;2023-02-08T04:38:44;103818.75;;;-0.15;71.83
66945;BME280;53853;51.982;5.928;2023-02-08T04:41:14;103812.63;;;-0.15;71.87
66945;BME280;53853;51.982;5.928;2023-02-08T04:43:44;103808.28;;;-0.18;71.94
66945;BME280;53853;51.982;5.928;2023-02-08T04:46:14;103797.78;;;-0.18;71.98
66945;BME280;53853;51.982;5.928;2023-02-08T04:48:44;103796.06;;;-0.19;72.28
66945;BME280;53853;51.982;5.928;2023-02-08T04:51:16;103796.03;;;-0.17;72.18
66945;BME280;53853;51.982;5.928;2023-02-08T04:53:46;103798.69;;;-0.19;71.34
66945;BME280;53853;51.982;5.928;2023-02-08T04:56:16;103801.31;;;-0.22;71.74
66945;BME280;53853;51.982;5.928;2023-02-08T04:58:46;103795.19;;;-0.26;71.51
66945;BME280;53853;51.982;5.928;2023-02-08T05:01:16;103791.72;;;-0.26;71.43
66945;BME280;53853;51.982;5.928;2023-02-08T05:03:46;103796.09;;;-0.28;71.76
66945;BME280;53853;51.982;5.928;2023-02-08T05:06:19;103789.97;;;-0.29;71.53
66945;BME280;53853;51.982;5.928;2023-02-08T05:08:49;103778.63;;;-0.31;71.82
66945;BME280;53853;51.982;5.928;2023-02-08T05:11:22;103788.25;;;-0.30;72.05
66945;BME280;53853;51.982;5.928;2023-02-08T05:13:52;103788.25;;;-0.30;71.68
66945;BME280;53853;51.982;5.928;2023-02-08T05:16:22;103791.72;;;-0.29;71.89
66945;BME280;53853;51.982;5.928;2023-02-08T05:18:54;103791.72;;;-0.29;71.82
66945;BME280;53853;51.982;5.928;2023-02-08T05:21:26;103786.50;;;-0.31;71.64
66945;BME280;53853;51.982;5.928;2023-02-08T05:23:56;103785.63;;;-0.31;71.34
66945;BME280;53853;51.982;5.928;2023-02-08T05:26:26;103787.34;;;-0.30;71.77
66945;BME280;53853;51.982;5.928;2023-02-08T05:28:56;103783.00;;;-0.31;71.59
66945;BME280;53853;51.982;5.928;2023-02-08T05:31:26;103783.00;;;-0.30;71.76
66945;BME280;53853;51.982;5.928;2023-02-08T05:33:55;103783.00;;;-0.28;71.60
66945;BME280;53853;51.982;5.928;2023-02-08T05:36:28;103779.47;;;-0.29;71.17
66945;BME280;53853;51.982;5.928;2023-02-08T05:38:58;103768.16;;;-0.32;71.45
66945;BME280;53853;51.982;5.928;2023-02-08T05:41:28;103768.16;;;-0.34;71.55
66945;BME280;53853;51.982;5.928;2023-02-08T05:43:58;103762.91;;;-0.35;71.90
66945;BME280;53853;51.982;5.928;2023-02-08T05:46:28;103762.94;;;-0.39;71.88
66945;BME280;53853;51.982;5.928;2023-02-08T05:48:58;103766.44;;;-0.40;72.16
66945;BME280;53853;51.982;5.928;2023-02-08T05:51:30;103771.69;;;-0.41;71.95
66945;BME280;53853;51.982;5.928;2023-02-08T05:54:00;103771.72;;;-0.43;71.83
66945;BME280;53853;51.982;5.928;2023-02-08T05:56:30;103772.56;;;-0.44;71.80
66945;BME280;53853;51.982;5.928;2023-02-08T05:59:00;103783.91;;;-0.43;71.67
66945;BME280;53853;51.982;5.928;2023-02-08T06:01:30;103788.28;;;-0.45;71.68
66945;BME280;53853;51.982;5.928;2023-02-08T06:04:00;103786.53;;;-0.45;71.34
66945;BME280;53853;51.982;5.928;2023-02-08T06:06:33;103783.06;;;-0.47;71.42
66945;BME280;53853;51.982;5.928;2023-02-08T06:09:03;103784.81;;;-0.47;71.58
66945;BME280;53853;51.982;5.928;2023-02-08T06:11:33;103773.44;;;-0.46;71.68
66945;BME280;53853;51.982;5.928;2023-02-08T06:14:03;103778.69;;;-0.45;71.90
66945;BME280;53853;51.982;5.928;2023-02-08T06:16:33;103781.28;;;-0.42;72.05
66945;BME280;53853;51.982;5.928;2023-02-08T06:19:03;103780.44;;;-0.44;71.92
66945;BME280;53853;51.982;5.928;2023-02-08T06:21:35;103781.28;;;-0.43;72.32
66945;BME280;53853;51.982;5.928;2023-02-08T06:24:05;103775.19;;;-0.42;72.52
66945;BME280;53853;51.982;5.928;2023-02-08T06:26:37;103767.31;;;-0.42;71.89
66945;BME280;53853;51.982;5.928;2023-02-08T06:29:06;103774.34;;;-0.46;72.19
66945;BME280;53853;51.982;5.928;2023-02-08T06:31:36;103769.09;;;-0.44;72.23
66945;BME280;53853;51.982;5.928;2023-02-08T06:34:06;103775.19;;;-0.45;72.68
66945;BME280;53853;51.982;5.928;2023-02-08T06:36:39;103765.56;;;-0.45;72.34
66945;BME280;53853;51.982;5.928;2023-02-08T06:39:10;103768.19;;;-0.46;72.51
66945;BME280;53853;51.982;5.928;2023-02-08T06:41:39;103769.09;;;-0.46;72.36
66945;BME280;53853;51.982;5.928;2023-02-08T06:44:09;103769.09;;;-0.46;72.49
66945;BME280;53853;51.982;5.928;2023-02-08T06:46:39;103768.19;;;-0.45;72.33
66945;BME280;53853;51.982;5.928;2023-02-08T06:49:10;103777.81;;;-0.44;72.40
66945;BME280;53853;51.982;5.928;2023-02-08T06:51:43;103771.72;;;-0.43;72.66
66945;BME280;53853;51.982;5.928;2023-02-08T06:54:13;103773.44;;;-0.42;72.56
66945;BME280;53853;51.982;5.928;2023-02-08T06:56:43;103763.84;;;-0.40;72.81
66945;BME280;53853;51.982;5.928;2023-02-08T06:59:13;103772.56;;;-0.38;72.63
66945;BME280;53853;51.982;5.928;2023-02-08T07:01:43;103770.78;;;-0.37;72.59
66945;BME280;53853;51.982;5.928;2023-02-08T07:04:13;103769.03;;;-0.35;72.25
66945;BME280;53853;51.982;5.928;2023-02-08T07:06:47;103779.50;;;-0.33;72.28
66945;BME280;53853;51.982;5.928;2023-02-08T07:09:17;103769.91;;;-0.34;71.90
66945;BME280;53853;51.982;5.928;2023-02-08T07:11:47;103765.53;;;-0.32;71.98
66945;BME280;53853;51.982;5.928;2023-02-08T07:14:17;103759.41;;;-0.30;72.03
66945;BME280;53853;51.982;5.928;2023-02-08T07:16:47;103764.66;;;-0.31;72.11
66945;BME280;53853;51.982;5.928;2023-02-08T07:19:17;103765.53;;;-0.29;71.76
66945;BME280;53853;51.982;5.928;2023-02-08T07:21:50;103769.88;;;-0.27;71.70
66945;BME280;53853;51.982;5.928;2023-02-08T07:24:20;103766.38;;;-0.24;71.07
66945;BME280;53853;51.982;5.928;2023-02-08T07:26:50;103765.50;;;-0.23;71.22
66945;BME280;53853;51.982;5.928;2023-02-08T07:29:20;103759.34;;;-0.17;71.26
66945;BME280;53853;51.982;5.928;2023-02-08T07:31:50;103756.69;;;-0.13;71.07
66945;BME280;53853;51.982;5.928;2023-02-08T07:34:19;103759.28;;;-0.10;70.49
66945;BME280;53853;51.982;5.928;2023-02-08T07:36:52;103748.78;;;-0.07;70.82
66945;BME280;53853;51.982;5.928;2023-02-08T07:39:22;103740.88;;;0.01;70.37
66945;BME280;53853;51.982;5.928;2023-02-08T07:41:52;103746.97;;;0.08;70.09
66945;BME280;53853;51.982;5.928;2023-02-08T07:44:23;103751.31;;;0.12;69.40
66945;BME280;53853;51.982;5.928;2023-02-08T07:46:53;103756.53;;;0.15;69.34
66945;BME280;53853;51.982;5.928;2023-02-08T07:49:23;103758.22;;;0.24;69.47
66945;BME280;53853;51.982;5.928;2023-02-08T07:51:56;103764.28;;;0.33;69.10
66945;BME280;53853;51.982;5.928;2023-02-08T07:54:27;103760.75;;;0.38;68.78
66945;BME280;53853;51.982;5.928;2023-02-08T07:56:57;103758.94;;;0.43;68.73
66945;BME280;53853;51.982;5.928;2023-02-08T07:59:27;103765.91;;;0.51;68.36
66945;BME280;53853;51.982;5.928;2023-02-08T08:01:56;103766.69;;;0.60;68.37
66945;BME280;53853;51.982;5.928;2023-02-08T08:04:27;103763.13;;;0.68;67.88
66945;BME280;53853;51.982;5.928;2023-02-08T08:06:59;103761.34;;;0.74;67.56
66945;BME280;53853;51.982;5.928;2023-02-08T08:09:29;103760.41;;;0.78;68.01
66945;BME280;53853;51.982;5.928;2023-02-08T08:11:59;103756.84;;;0.85;67.75
66945;BME280;53853;51.982;5.928;2023-02-08T08:14:29;103756.81;;;0.89;68.08
66945;BME280;53853;51.982;5.928;2023-02-08T08:16:59;103756.75;;;0.96;67.73
66945;BME280;53853;51.982;5.928;2023-02-08T08:19:28;103747.91;;;1.04;67.60
66945;BME280;53853;51.982;5.928;2023-02-08T08:22:01;103754.00;;;1.10;66.67
66945;BME280;53853;51.982;5.928;2023-02-08T08:24:31;103750.41;;;1.17;66.23
66945;BME280;53853;51.982;5.928;2023-02-08T08:27:01;103750.31;;;1.24;66.73
66945;BME280;53853;51.982;5.928;2023-02-08T08:29:32;103752.03;;;1.29;66.49
66945;BME280;53853;51.982;5.928;2023-02-08T08:32:02;103744.06;;;1.33;66.04
66945;BME280;53853;51.982;5.928;2023-02-08T08:34:33;103747.53;;;1.40;66.06
66945;BME280;53853;51.982;5.928;2023-02-08T08:37:05;103750.91;;;1.50;65.83
66945;BME280;53853;51.982;5.928;2023-02-08T08:39:35;103749.03;;;1.58;64.99
66945;BME280;53853;51.982;5.928;2023-02-08T08:42:05;103743.69;;;1.66;64.87
66945;BME280;53853;51.982;5.928;2023-02-08T08:44:35;103744.44;;;1.75;64.68
66945;BME280;53853;51.982;5.928;2023-02-08T08:47:05;103741.72;;;1.83;64.57
66945;BME280;53853;51.982;5.928;2023-02-08T08:49:35;103742.50;;;1.88;63.92
66945;BME280;53853;51.982;5.928;2023-02-08T08:52:08;103732.78;;;1.93;63.19
66945;BME280;53853;51.982;5.928;2023-02-08T08:54:38;103732.66;;;2.01;63.30
66945;BME280;53853;51.982;5.928;2023-02-08T08:57:08;103730.81;;;2.08;63.45
66945;BME280;53853;51.982;5.928;2023-02-08T08:59:38;103722.78;;;2.17;63.89
66945;BME280;53853;51.982;5.928;2023-02-08T09:02:10;103728.88;;;2.21;63.24
66945;BME280;53853;51.982;5.928;2023-02-08T09:04:41;103727.94;;;2.25;62.89
66945;BME280;53853;51.982;5.928;2023-02-08T09:07:14;103735.78;;;2.28;62.53
66945;BME280;53853;51.982;5.928;2023-02-08T09:09:43;103731.31;;;2.31;62.47
66945;BME280;53853;51.982;5.928;2023-02-08T09:12:15;103732.16;;;2.37;62.52
66945;BME280;53853;51.982;5.928;2023-02-08T09:14:45;103732.94;;;2.42;62.43
66945;BME280;53853;51.982;5.928;2023-02-08T09:17:14;103730.19;;;2.49;62.12
66945;BME280;53853;51.982;5.928;2023-02-08T09:19:44;103730.09;;;2.54;62.08
66945;BME280;53853;51.982;5.928;2023-02-08T09:22:17;103730.03;;;2.59;62.18
66945;BME280;53853;51.982;5.928;2023-02-08T09:24:47;103724.63;;;2.65;61.98
66945;BME280;53853;51.982;5.928;2023-02-08T09:27:17;103717.63;;;2.64;61.34
66945;BME280;53853;51.982;5.928;2023-02-08T09:29:47;103719.28;;;2.69;61.53
66945;BME280;53853;51.982;5.928;2023-02-08T09:32:17;103723.53;;;2.78;61.39
66945;BME280;53853;51.982;5.928;2023-02-08T09:34:48;103727.81;;;2.82;60.96
66945;BME280;53853;51.982;5.928;2023-02-08T09:37:21;103740.06;;;2.86;61.04
66945;BME280;53853;51.982;5.928;2023-02-08T09:39:51;103751.34;;;2.93;60.57
66945;BME280;53853;51.982;5.928;2023-02-08T09:42:34;103749.50;;;2.98;60.18
66945;BME280;53853;51.982;5.928;2023-02-08T09:45:23;103757.31;;;3.03;59.70
66945;BME280;53853;51.982;5.928;2023-02-08T09:47:59;103754.59;;;3.06;59.38
66945;BME280;53853;51.982;5.928;2023-02-08T09:50:33;103757.16;;;3.11;59.19
66945;BME280;53853;51.982;5.928;2023-02-08T09:53:12;103749.94;;;3.20;59.65
66945;BME280;53853;51.982;5.928;2023-02-08T09:55:46;103754.31;;;3.21;57.92
66945;BME280;53853;51.982;5.928;2023-02-08T09:58:23;103755.06;;;3.28;58.73
66945;BME280;53853;51.982;5.928;2023-02-08T10:00:55;103748.00;;;3.32;58.04
66945;BME280;53853;51.982;5.928;2023-02-08T10:03:34;103760.19;;;3.36;57.93
66945;BME280;53853;51.982;5.928;2023-02-08T10:06:09;103753.06;;;3.41;58.30
66945;BME280;53853;51.982;5.928;2023-02-08T10:08:43;103754.72;;;3.47;58.24
66945;BME280;53853;51.982;5.928;2023-02-08T10:11:30;103759.81;;;3.54;58.75
66945;BME280;53853;51.982;5.928;2023-02-08T10:14:14;103751.81;;;3.59;58.20
66945;BME280;53853;51.982;5.928;2023-02-08T10:16:58;103756.09;;;3.65;58.11
66945;BME280;53853;51.982;5.928;2023-02-08T10:19:40;103750.72;;;3.69;58.25
66945;BME280;53853;51.982;5.928;2023-02-08T10:22:25;103747.13;;;3.73;57.44
66945;BME280;53853;51.982;5.928;2023-02-08T10:25:13;103748.72;;;3.79;57.62
66945;BME280;53853;51.982;5.928;2023-02-08T10:27:53;103755.69;;;3.83;57.75
66945;BME280;53853;51.982;5.928;2023-02-08T10:30:29;103744.94;;;3.92;58.78
66945;BME280;53853;51.982;5.928;2023-02-08T10:33:02;103762.38;;;3.98;58.30
66945;BME280;53853;51.982;5.928;2023-02-08T10:35:37;103758.78;;;4.02;57.76
66945;BME280;53853;51.982;5.928;2023-02-08T10:38:27;103746.41;;;4.04;56.62
66945;BME280;53853;51.982;5.928;2023-02-08T10:41:02;103757.78;;;4.08;56.72
66945;BME280;53853;51.982;5.928;2023-02-08T10:43:38;103759.34;;;4.16;58.01
66945;BME280;53853;51.982;5.928;2023-02-08T10:46:15;103757.47;;;4.20;57.33
66945;BME280;53853;51.982;5.928;2023-02-08T10:48:56;103760.91;;;4.25;57.56
66945;BME280;53853;51.982;5.928;2023-02-08T10:51:29;103764.22;;;4.33;57.75
66945;BME280;53853;51.982;5.928;2023-02-08T10:53:59;103752.69;;;4.36;56.02
66945;BME280;53853;51.982;5.928;2023-02-08T10:56:42;103752.63;;;4.39;55.34
66945;BME280;53853;51.982;5.928;2023-02-08T10:59:19;103758.75;;;4.41;55.13
66945;BME280;53853;51.982;5.928;2023-02-08T11:01:50;103745.38;;;4.49;56.30
66945;BME280;53853;51.982;5.928;2023-02-08T11:04:21;103741.72;;;4.53;55.24
66945;BME280;53853;51.982;5.928;2023-02-08T11:06:51;103738.13;;;4.57;55.54
66945;BME280;53853;51.982;5.928;2023-02-08T11:09:24;103723.91;;;4.61;55.15
66945;BME280;53853;51.982;5.928;2023-02-08T11:11:59;103730.84;;;4.65;55.41
66945;BME280;53853;51.982;5.928;2023-02-08T11:14:32;103720.25;;;4.67;54.63
66945;BME280;53853;51.982;5.928;2023-02-08T11:17:03;103726.28;;;4.72;55.46
66945;BME280;53853;51.982;5.928;2023-02-08T11:19:35;103728.88;;;4.74;54.87
66945;BME280;53853;51.982;5.928;2023-02-08T11:22:15;103725.19;;;4.81;55.30
66945;BME280;53853;51.982;5.928;2023-02-08T11:24:54;103725.03;;;4.87;56.22
66945;BME280;53853;51.982;5.928;2023-02-08T11:27:35;103714.34;;;4.90;54.15
66945;BME280;53853;51.982;5.928;2023-02-08T11:30:20;103715.09;;;4.95;54.27
66945;BME280;53853;51.982;5.928;2023-02-08T11:33:17;103712.28;;;5.01;53.76
66945;BME280;53853;51.982;5.928;2023-02-08T11:35:55;103710.25;;;5.11;53.56
66945;BME280;53853;51.982;5.928;2023-02-08T11:38:25;103710.03;;;5.19;52.98
66945;BME280;53853;51.982;5.928;2023-02-08T11:40:57;103700.16;;;5.25;53.57
66945;BME280;53853;51.982;5.928;2023-02-08T11:43:30;103707.06;;;5.30;52.77
66945;BME280;53853;51.982;5.928;2023-02-08T11:46:01;103705.13;;;5.36;53.11
66945;BME280;53853;51.982;5.928;2023-02-08T11:48:41;103709.34;;;5.42;53.52
66945;BME280;53853;51.982;5.928;2023-02-08T11:51:21;103703.88;;;5.48;53.73
66945;BME280;53853;51.982;5.928;2023-02-08T11:53:53;103695.81;;;5.53;53.65
66945;BME280;53853;51.982;5.928;2023-02-08T11:56:24;103691.25;;;5.58;53.10
66945;BME280;53853;51.982;5.928;2023-02-08T11:59:04;103692.91;;;5.62;52.65
66945;BME280;53853;51.982;5.928;2023-02-08T12:01:36;103696.25;;;5.67;52.32
66945;BME280;53853;51.982;5.928;2023-02-08T12:04:10;103684.59;;;5.74;52.34
66945;BME280;53853;51.982;5.928;2023-02-08T12:07:05;103680.91;;;5.78;52.50
66945;BME280;53853;51.982;5.928;2023-02-08T12:10:05;103677.31;;;5.81;52.24
66945;BME280;53853;51.982;5.928;2023-02-08T12:12:50;103682.56;;;5.83;50.74
66945;BME280;53853;51.982;5.928;2023-02-08T12:15:28;103678.84;;;5.88;52.76
66945;BME280;53853;51.982;5.928;2023-02-08T12:18:17;103670.78;;;5.91;51.76
66945;BME280;53853;51.982;5.928;2023-02-08T12:20:57;103663.66;;;5.95;49.98
66945;BME280;53853;51.982;5.928;2023-02-08T12:23:46;103657.31;;;6.01;50.95
66945;BME280;53853;51.982;5.928;2023-02-08T12:26:22;103658.06;;;6.04;51.84
66945;BME280;53853;51.982;5.928;2023-02-08T12:29:05;103649.16;;;6.07;49.91
66945;BME280;53853;51.982;5.928;2023-02-08T12:31:55;103650.75;;;6.12;51.45
66945;BME280;53853;51.982;5.928;2023-02-08T12:34:40;103624.16;;;6.15;50.61
66945;BME280;53853;51.982;5.928;2023-02-08T12:37:28;103624.81;;;6.22;50.60
66945;BME280;53853;51.982;5.928;2023-02-08T12:40:21;103622.06;;;6.25;51.02
66945;BME280;53853;51.982;5.928;2023-02-08T12:43:15;103625.47;;;6.29;48.60
66945;BME280;53853;51.982;5.928;2023-02-08T12:46:10;103621.81;;;6.33;47.03
66945;BME280;53853;51.982;5.928;2023-02-08T12:48:52;103611.09;;;6.36;48.84
66945;BME280;53853;51.982;5.928;2023-02-08T12:51:32;103605.69;;;6.39;49.83
66945;BME280;53853;51.982;5.928;2023-02-08T12:54:10;103607.34;;;6.42;50.33
66945;BME280;53853;51.982;5.928;2023-02-08T12:56:44;103602.81;;;6.45;49.68
66945;BME280;53853;51.982;5.928;2023-02-08T12:59:21;103589.56;;;6.45;48.44
66945;BME280;53853;51.982;5.928;2023-02-08T13:01:56;103581.56;;;6.47;47.83
66945;BME280;53853;51.982;5.928;2023-02-08T13:04:34;103585.84;;;6.51;48.10
66945;BME280;53853;51.982;5.928;2023-02-08T13:07:11;103584.81;;;6.55;49.28
66945;BME280;53853;51.982;5.928;2023-02-08T13:09:50;103582.06;;;6.58;48.95
66945;BME280;53853;51.982;5.928;2023-02-08T13:12:27;103581.97;;;6.60;49.52
66945;BME280;53853;51.982;5.928;2023-02-08T13:15:05;103581.88;;;6.63;46.98
66945;BME280;53853;51.982;5.928;2023-02-08T13:17:43;103577.34;;;6.66;45.48
66945;BME280;53853;51.982;5.928;2023-02-08T13:20:32;103575.44;;;6.70;46.13
66945;BME280;53853;51.982;5.928;2023-02-08T13:23:13;103569.34;;;6.68;46.50
66945;BME280;53853;51.982;5.928;2023-02-08T13:25:48;103557.78;;;6.69;47.20
66945;BME280;53853;51.982;5.928;2023-02-08T13:28:22;103562.13;;;6.71;47.42
66945;BME280;53853;51.982;5.928;2023-02-08T13:30:56;103569.09;;;6.74;46.84
66945;BME280;53853;51.982;5.928;2023-02-08T13:33:35;103563.81;;;6.74;47.28
66945;BME280;53853;51.982;5.928;2023-02-08T13:36:17;103557.44;;;6.78;47.67